Ana Sayfa
METAR-TAF:

METAR-TAF

Havaalanları :

Anapa Havalimanı

Anapa, Rusya

Enlem: 44-54N, Boylam: 037-19E, yükseklik: 53 m

Güncel hava durumu gözlemi

Rapor saat 04:30 UTC de 26 dakika önce yapıldı.
Rüzgar doğudan 8 kt
Sıcaklık 26°C
Nem 48%
Basınç 1012 hPa
Görüş mesafesi 10 km veya daha fazla
1500 m altında bulut yok ve kümülonimbus yok

METAR: URKA 150430Z 08004MPS CAVOK 26/14 Q1012 R04/010070 NOSIG RMK QFE755/1007

Saat: 07:56 (04:56 UTC)

Tahmin

Rapor saat 01:56 UTC de 3 saat ve 0 dakika önce yapıldı.
Ayın 15'si saat 03 UTC'den ayın 16'si saat 03 UTC'ye kadar geçerli Tahmin
Rüzgar doğudan 14 kt ve 25 kt'a kadar ani rüzgarlar
Görüş mesafesi 10 km veya daha fazla
1500 m altında bulut yok ve kümülonimbus yok

TAF: URKA 150156Z 1503/1603 08007G13MPS CAVOK

4.000'den fazla havaalanı için hava durumu gözlemleri ve tahminleri (METAR ve TAF raporları).

Kullanılabilir istasyonlar harita üzerinde sarı ve kırmızı noktalarla gösterilir.

İstasyonun adını görmek için fareyi noktanın üzerinde gezdirin.

Sonrasında hava gözlem ve tahminlerini görmek için tıklayın.

Haritayı değiştirmek için: yaklaştırmak için siyah artı işaretli yeşil düğmeye ve uzaklaştırmak için de eksi işaretli düğmeye hızla tıklayın; bitişik haritalar için yeşil okları kullanın.


METAR-TAF: